Time;durP1;ratioP1;P1;durP2;ratioP2;P2;SDS_P1;SDS_P2;PMS_P1;PMS_P2;Temp;Humidity;BMP_temperature;BMP_pressure;BME280_temperature;BME280_humidity;BME280_pressure;Samples;Min_cycle;Max_cycle;Signal;HPM_P1;HPM_P2
2021/04/22 00:09:00;;;;;;;7.55;1.42;;;7.80;99.90;;;;;;6733770;88;20210;-76
2021/04/22 00:19:01;;;;;;;7.55;1.42;;;7.70;99.90;;;;;;6731643;88;20189;-77
2021/04/22 00:29:02;;;;;;;5.93;1.50;;;7.50;99.90;;;;;;6746115;88;20193;-76
2021/04/22 00:39:04;;;;;;;5.45;1.30;;;7.40;99.90;;;;;;6727247;88;20277;-75
2021/04/22 00:49:04;;;;;;;9.48;1.60;;;7.20;99.90;;;;;;6724835;88;20316;-75
2021/04/22 00:59:05;;;;;;;5.68;1.05;;;7.00;99.90;;;;;;6722494;88;20240;-75
2021/04/22 01:09:06;;;;;;;8.93;1.37;;;6.70;99.90;;;;;;6725956;88;20208;-75
2021/04/22 01:19:07;;;;;;;9.90;1.33;;;6.50;99.90;;;;;;6726007;88;20339;-76
2021/04/22 01:29:07;;;;;;;6.95;1.42;;;6.30;99.90;;;;;;6729718;88;20209;-75
2021/04/22 01:39:11;;;;;;;9.35;1.45;;;6.10;99.90;;;;;;6737954;88;20189;-75
2021/04/22 01:49:11;;;;;;;10.40;1.10;;;6.10;99.90;;;;;;6735549;88;20196;-75
2021/04/22 01:59:12;;;;;;;12.45;1.50;;;5.90;99.90;;;;;;6739345;88;20284;-76
2021/04/22 02:09:12;;;;;;;13.15;1.73;;;5.80;99.90;;;;;;6741907;88;20179;-75
2021/04/22 02:19:13;;;;;;;11.52;1.80;;;5.60;99.90;;;;;;6740344;88;20196;-75
2021/04/22 02:29:14;;;;;;;10.05;1.65;;;5.50;99.90;;;;;;6730604;88;21014;-76
2021/04/22 02:39:15;;;;;;;7.32;1.37;;;5.50;99.90;;;;;;6729944;88;20205;-76
2021/04/22 02:49:15;;;;;;;8.80;1.70;;;5.40;99.90;;;;;;6726892;88;20200;-76
2021/04/22 02:59:16;;;;;;;12.48;1.75;;;5.30;99.90;;;;;;6731969;88;20201;-75
2021/04/22 03:09:16;;;;;;;6.78;1.58;;;5.20;99.90;;;;;;6730053;88;20344;-78
2021/04/22 03:19:17;;;;;;;10.65;1.35;;;5.00;99.90;;;;;;6729001;88;20222;-77
2021/04/22 03:29:17;;;;;;;9.88;1.92;;;4.90;99.90;;;;;;6734886;88;20177;-77
2021/04/22 03:39:18;;;;;;;14.43;1.70;;;4.80;99.90;;;;;;6734544;88;20213;-76
2021/04/22 03:49:18;;;;;;;17.48;2.05;;;4.90;99.90;;;;;;6730446;88;20189;-76
2021/04/22 03:59:19;;;;;;;12.65;2.00;;;4.90;99.90;;;;;;6733671;88;20254;-76
2021/04/22 04:09:19;;;;;;;12.93;1.93;;;4.70;99.90;;;;;;6731291;88;20188;-76
2021/04/22 04:19:20;;;;;;;9.23;1.83;;;4.80;99.90;;;;;;6733331;88;20628;-77
2021/04/22 04:29:23;;;;;;;11.95;1.95;;;4.80;99.90;;;;;;6737748;88;20299;-76
2021/04/22 04:39:24;;;;;;;10.18;1.80;;;4.80;99.90;;;;;;6749795;88;20188;-76
2021/04/22 04:49:24;;;;;;;6.87;1.87;;;4.80;99.90;;;;;;6754570;88;20175;-76
2021/04/22 04:59:25;;;;;;;16.17;2.85;;;4.90;99.90;;;;;;6754813;88;20286;-76
2021/04/22 05:09:26;;;;;;;16.10;2.37;;;5.00;99.90;;;;;;6757126;88;20282;-76
2021/04/22 05:19:27;;;;;;;12.77;2.35;;;5.30;99.90;;;;;;6752751;88;20219;-76
2021/04/22 05:29:27;;;;;;;12.20;2.20;;;5.50;99.90;;;;;;6753382;88;20185;-76
2021/04/22 05:39:28;;;;;;;11.23;1.93;;;5.60;99.90;;;;;;6757520;88;20232;-77
2021/04/22 05:49:28;;;;;;;13.93;2.87;;;5.80;99.90;;;;;;6758123;88;20501;-76
2021/04/22 05:59:30;;;;;;;12.70;2.50;;;5.90;99.90;;;;;;6756233;88;20517;-77
2021/04/22 06:09:31;;;;;;;12.73;2.70;;;6.30;99.90;;;;;;6756245;88;20210;-79
2021/04/22 06:19:31;;;;;;;18.25;2.80;;;6.60;99.90;;;;;;6752345;88;20193;-76
2021/04/22 06:29:32;;;;;;;15.73;2.92;;;6.90;99.90;;;;;;6755270;88;20297;-77
2021/04/22 06:39:33;;;;;;;21.23;3.17;;;7.10;99.90;;;;;;6728252;88;20214;-77
2021/04/22 06:49:33;;;;;;;14.68;3.80;;;7.60;99.90;;;;;;6738777;88;20239;-76
2021/04/22 06:59:34;;;;;;;13.63;3.57;;;8.00;99.90;;;;;;6728394;88;20207;-77
2021/04/22 07:09:35;;;;;;;14.75;3.60;;;8.10;99.90;;;;;;6731269;88;20999;-78
2021/04/22 07:19:38;;;;;;;11.43;3.58;;;8.40;99.90;;;;;;6730233;88;20180;-77
2021/04/22 07:29:44;;;;;;;15.77;3.47;;;8.40;99.90;;;;;;6725844;88;20424;-76
2021/04/22 07:39:45;;;;;;;15.00;3.33;;;8.60;99.90;;;;;;6729232;88;20193;-79
2021/04/22 07:49:46;;;;;;;15.55;4.40;;;8.50;99.90;;;;;;6726560;88;21060;-77
2021/04/22 07:59:47;;;;;;;13.55;3.35;;;8.60;99.90;;;;;;6729294;88;20689;-75
2021/04/22 08:09:47;;;;;;;7.03;2.15;;;8.50;99.90;;;;;;6733983;88;20225;-76
2021/04/22 08:19:48;;;;;;;8.23;2.05;;;9.30;98.00;;;;;;6729217;88;20236;-77
2021/04/22 08:29:49;;;;;;;8.13;2.10;;;10.10;95.90;;;;;;6728566;88;20213;-77
2021/04/22 08:39:49;;;;;;;11.63;2.35;;;11.10;92.20;;;;;;6737412;88;20214;-77
2021/04/22 08:49:50;;;;;;;8.15;2.08;;;11.10;92.00;;;;;;6736281;88;20210;-77
2021/04/22 08:59:53;;;;;;;8.10;2.55;;;11.50;91.00;;;;;;6727053;88;20241;-77
2021/04/22 09:09:53;;;;;;;8.90;2.80;;;12.20;90.30;;;;;;6728279;88;20260;-78
2021/04/22 09:19:54;;;;;;;10.77;3.00;;;13.30;85.90;;;;;;6736710;88;20421;-78
2021/04/22 09:29:55;;;;;;;9.10;2.87;;;13.60;84.00;;;;;;6748067;88;21048;-77
2021/04/22 09:39:56;;;;;;;11.55;3.20;;;13.20;82.30;;;;;;6737166;88;20216;-78
2021/04/22 09:50:00;;;;;;;9.05;2.90;;;13.40;80.40;;;;;;6732460;88;20247;-78
2021/04/22 10:00:02;;;;;;;9.13;3.12;;;14.30;78.80;;;;;;6742123;88;20320;-78
2021/04/22 10:10:21;;;;;;;8.00;2.85;;;15.40;76.10;;;;;;6729458;88;20194;-78
2021/04/22 10:20:23;;;;;;;12.32;2.97;;;15.60;71.90;;;;;;6728144;88;20189;-78
2021/04/22 10:30:25;;;;;;;8.80;2.80;;;15.80;70.10;;;;;;6730365;88;20211;-77
2021/04/22 10:40:29;;;;;;;10.20;2.92;;;16.90;67.50;;;;;;6732431;88;20213;-78
2021/04/22 10:50:33;;;;;;;10.50;3.62;;;16.90;66.20;;;;;;6730299;88;20278;-77
2021/04/22 11:00:34;;;;;;;12.80;3.30;;;15.90;66.90;;;;;;6729267;88;20220;-77
2021/04/22 11:10:44;;;;;;;9.77;3.10;;;16.30;65.70;;;;;;6730640;88;20788;-78
2021/04/22 11:20:45;;;;;;;11.55;3.22;;;17.00;65.00;;;;;;6727778;88;20212;-77
2021/04/22 11:30:46;;;;;;;9.13;3.60;;;16.60;64.40;;;;;;6735265;88;20201;-77
2021/04/22 11:40:48;;;;;;;12.82;3.80;;;17.10;61.90;;;;;;6734213;88;20213;-77
2021/04/22 11:50:55;;;;;;;8.13;3.58;;;16.90;63.20;;;;;;6735423;88;20209;-77
2021/04/22 12:01:08;;;;;;;7.72;3.70;;;16.90;61.00;;;;;;6736819;88;20193;-77
2021/04/22 12:11:18;;;;;;;15.52;3.83;;;17.70;60.00;;;;;;6731554;88;20724;-78
2021/04/22 12:21:25;;;;;;;8.80;3.62;;;17.60;59.60;;;;;;6740254;88;20204;-78
2021/04/22 12:31:33;;;;;;;11.00;3.90;;;17.60;59.20;;;;;;6735980;88;20657;-77
2021/04/22 12:41:33;;;;;;;8.70;3.50;;;18.60;58.00;;;;;;6733031;88;20182;-76
2021/04/22 12:51:37;;;;;;;14.57;3.53;;;18.50;60.40;;;;;;6729652;88;20298;-77
2021/04/22 13:01:37;;;;;;;16.20;3.10;;;18.90;57.70;;;;;;6735426;88;20210;-78
2021/04/22 13:11:39;;;;;;;10.23;2.90;;;18.30;57.60;;;;;;6737495;88;20230;-78
2021/04/22 13:21:41;;;;;;;11.48;3.87;;;19.30;56.60;;;;;;6731771;88;20297;-78
2021/04/22 13:31:43;;;;;;;9.00;2.90;;;18.40;57.80;;;;;;6730649;88;21009;-78
2021/04/22 13:41:44;;;;;;;8.05;2.95;;;19.10;54.30;;;;;;6739946;88;20331;-78
2021/04/22 13:51:44;;;;;;;7.10;2.90;;;18.30;54.60;;;;;;6733527;88;20212;-79
2021/04/22 14:01:45;;;;;;;10.10;3.20;;;19.10;54.90;;;;;;6737188;88;20261;-77
2021/04/22 14:11:47;;;;;;;12.90;3.70;;;19.60;55.40;;;;;;6734420;88;20747;-78
2021/04/22 14:21:48;;;;;;;16.05;4.40;;;18.80;56.40;;;;;;6734753;88;20210;-78
2021/04/22 14:31:51;;;;;;;13.10;4.78;;;17.80;57.40;;;;;;6728799;88;20214;-78
2021/04/22 14:41:58;;;;;;;9.05;3.40;;;18.50;57.30;;;;;;6729162;88;20166;-78
2021/04/22 14:51:58;;;;;;;13.77;4.90;;;18.60;56.20;;;;;;6735839;88;20193;-78
2021/04/22 15:01:59;;;;;;;10.73;4.37;;;17.40;58.80;;;;;;6735409;88;20193;-78
2021/04/22 15:11:59;;;;;;;16.45;4.22;;;16.60;59.50;;;;;;6733977;88;20188;-79
2021/04/22 15:22:01;;;;;;;13.95;4.53;;;17.40;58.80;;;;;;6734993;88;20197;-77
2021/04/22 15:32:02;;;;;;;11.93;4.37;;;17.70;58.50;;;;;;6729328;88;20727;-78
2021/04/22 15:42:03;;;;;;;11.68;4.10;;;17.20;60.10;;;;;;6736368;88;20383;-77
2021/04/22 15:52:03;;;;;;;11.52;3.55;;;17.20;59.20;;;;;;6730624;88;20262;-78
2021/04/22 16:02:04;;;;;;;13.18;4.35;;;17.00;60.30;;;;;;6729965;88;20197;-78
2021/04/22 16:12:05;;;;;;;14.03;4.43;;;16.40;61.10;;;;;;6730029;88;20185;-77
2021/04/22 16:22:06;;;;;;;8.60;4.18;;;15.90;61.40;;;;;;6732824;88;20190;-78
2021/04/22 16:32:07;;;;;;;14.57;4.10;;;15.70;62.60;;;;;;6728493;88;20696;-77
2021/04/22 16:42:07;;;;;;;8.37;4.20;;;15.40;62.60;;;;;;6724140;88;20389;-77
2021/04/22 16:52:08;;;;;;;8.55;3.92;;;15.00;62.90;;;;;;6741309;88;20545;-77
2021/04/22 17:02:09;;;;;;;8.25;3.42;;;15.20;63.60;;;;;;6725090;88;20197;-77
2021/04/22 17:12:10;;;;;;;13.13;3.90;;;14.70;64.70;;;;;;6726211;88;20621;-76
2021/04/22 17:22:10;;;;;;;8.07;3.60;;;14.40;65.40;;;;;;6727968;88;20552;-77
2021/04/22 17:32:11;;;;;;;10.90;3.85;;;14.40;65.50;;;;;;6733958;88;20208;-77
2021/04/22 17:42:11;;;;;;;12.45;3.67;;;14.30;65.80;;;;;;6728292;88;20234;-78
2021/04/22 17:52:12;;;;;;;14.90;4.18;;;13.60;67.90;;;;;;6723516;88;20228;-76
2021/04/22 18:02:13;;;;;;;10.57;4.13;;;13.30;68.50;;;;;;6730851;88;20197;-77
2021/04/22 18:12:13;;;;;;;8.32;3.30;;;12.70;70.60;;;;;;6738881;88;20581;-78
2021/04/22 18:22:14;;;;;;;11.30;4.25;;;12.50;71.40;;;;;;6736100;88;20197;-78
2021/04/22 18:32:15;;;;;;;9.40;3.80;;;12.00;73.20;;;;;;6724486;88;20190;-78
2021/04/22 18:42:16;;;;;;;14.35;3.90;;;11.80;75.00;;;;;;6719407;88;20220;-75
2021/04/22 18:52:17;;;;;;;9.13;3.50;;;11.60;75.80;;;;;;6737978;88;20321;-77
2021/04/22 19:02:22;;;;;;;14.90;3.55;;;11.30;77.70;;;;;;6738519;88;20204;-76
2021/04/22 19:12:23;;;;;;;10.68;3.30;;;11.10;79.60;;;;;;6718958;88;20271;-77
2021/04/22 19:22:23;;;;;;;6.87;2.63;;;10.90;82.20;;;;;;6721194;88;20205;-76
2021/04/22 19:32:24;;;;;;;11.95;3.30;;;10.70;85.20;;;;;;6735822;88;20514;-76
2021/04/22 19:42:25;;;;;;;8.90;2.95;;;10.60;87.30;;;;;;6736828;88;20338;-76
2021/04/22 19:52:26;;;;;;;10.43;2.90;;;10.40;90.00;;;;;;6737352;88;20229;-76
2021/04/22 20:02:27;;;;;;;8.05;2.78;;;10.20;91.70;;;;;;6728872;88;20263;-74
2021/04/22 20:12:27;;;;;;;8.60;2.83;;;10.10;92.40;;;;;;6726190;88;20213;-75
2021/04/22 20:22:28;;;;;;;8.60;3.05;;;9.90;93.40;;;;;;6726755;88;21256;-74
2021/04/22 20:32:29;;;;;;;11.50;3.47;;;9.70;94.70;;;;;;6726794;88;20341;-75
2021/04/22 20:42:29;;;;;;;7.68;3.35;;;9.40;96.30;;;;;;6727283;88;20344;-75
2021/04/22 20:52:30;;;;;;;13.25;4.20;;;9.20;97.30;;;;;;6729469;88;20256;-74
2021/04/22 21:02:31;;;;;;;11.40;2.87;;;9.00;98.70;;;;;;6729764;88;20595;-75
2021/04/22 21:12:32;;;;;;;8.25;2.25;;;9.10;98.50;;;;;;6724198;88;20224;-74
2021/04/22 21:22:32;;;;;;;8.43;2.25;;;9.30;98.00;;;;;;6725716;88;20654;-75
2021/04/22 21:32:33;;;;;;;6.47;2.30;;;9.30;98.10;;;;;;6730372;88;20317;-74
2021/04/22 21:42:34;;;;;;;7.37;2.40;;;9.20;98.60;;;;;;6732285;88;20205;-75
2021/04/22 21:52:36;;;;;;;6.95;2.47;;;9.00;99.10;;;;;;6736812;88;20214;-75
2021/04/22 22:02:37;;;;;;;13.98;3.70;;;8.90;99.60;;;;;;6725454;88;20208;-74
2021/04/22 22:12:37;;;;;;;11.88;3.65;;;8.60;99.90;;;;;;6724536;88;20303;-74
2021/04/22 22:22:45;;;;;;;9.13;3.62;;;8.10;99.90;;;;;;6725510;88;20609;-75
2021/04/22 22:32:47;;;;;;;10.23;3.47;;;7.90;99.90;;;;;;6727754;88;20234;-75
2021/04/22 22:42:47;;;;;;;10.60;3.53;;;7.80;99.90;;;;;;6727695;88;20254;-74
2021/04/22 22:52:48;;;;;;;11.10;3.60;;;7.60;99.90;;;;;;6730943;88;20181;-75
2021/04/22 23:02:50;;;;;;;6.97;3.30;;;7.40;99.90;;;;;;6724472;88;20215;-75
2021/04/22 23:12:51;;;;;;;9.88;3.22;;;7.30;99.90;;;;;;6723332;88;20785;-75
2021/04/22 23:22:52;;;;;;;7.22;2.85;;;7.20;99.90;;;;;;6725393;88;20189;-75
2021/04/22 23:32:54;;;;;;;7.85;2.85;;;7.10;99.90;;;;;;6728340;88;20173;-75
2021/04/22 23:42:55;;;;;;;11.20;3.12;;;6.90;99.90;;;;;;6726341;88;20201;-74
2021/04/22 23:52:56;;;;;;;13.65;3.58;;;6.90;99.90;;;;;;6722261;88;21085;-75
